Crest Voyager — 3EBB8 — position and weather

sailwx.info

Track history (hours):
 
Tides and Currents Weather Stations Pressure Air Temp Water Temp Dewpoint Dewpoint Depression Visibility Wind Speed Wind Dir Waves Ship Positions

Crest Voyager

Last reported at 2017-Feb-09 20:15 UTC. Time now 2017-Feb-26 23:56 UTC.
Position S 19°52' E 056°52'.
Warning: this ship's position is 17 days out of date.

Length 292 m; draft 9.8 m.

Type: Cargo ship. MMSI: 374835000.

Date/timePositionNaut miles runAvg speedWind from/ knotsBaromVisibWave heightAir tempDewpointWater temp
2017-Feb-09 20:15S 19°52' E 056°52'912.5
2017-Feb-09 19:33S 19°48' E 056°60'1312.5
2017-Feb-09 18:29S 19°41' E 057°12'1112.2
2017-Feb-09 17:33S 19°36' E 057°22'1212.2
2017-Feb-09 16:33S 19°30' E 057°34'1212.2
2017-Feb-09 15:33S 19°23' E 057°45'1212.4
2017-Feb-09 14:33S 19°17' E 057°56'1312.8
2017-Feb-09 13:33S 19°11' E 058°08'1312.6
2017-Feb-09 12:33S 19°05' E 058°19'1312.7
2017-Feb-09 11:33S 18°58' E 058°31'1514.5
2017-Feb-09 10:33S 18°51' E 058°45'  
Track history (hours):
 
Tides and Currents Weather Stations Pressure Air Temp Water Temp Dewpoint Dewpoint Depression Visibility Wind Speed Wind Dir Waves Ship Positions

Crest Voyager

Last reported at 2017-Feb-09 20:15 UTC. Time now 2017-Feb-26 23:56 UTC.
Position S 19°52' E 056°52'.
Warning: this ship's position is 17 days out of date.

Length 292 m; draft 9.8 m.

Type: Cargo ship. MMSI: 374835000.

Date/timePositionNaut miles runAvg speedWind from/ knotsBaromVisibWave heightAir tempDewpointWater temp
2017-Feb-09 20:15S 19°52' E 056°52'912.5
2017-Feb-09 19:33S 19°48' E 056°60'1312.5
2017-Feb-09 18:29S 19°41' E 057°12'1112.2
2017-Feb-09 17:33S 19°36' E 057°22'1212.2
2017-Feb-09 16:33S 19°30' E 057°34'1212.2
2017-Feb-09 15:33S 19°23' E 057°45'1212.4
2017-Feb-09 14:33S 19°17' E 057°56'1312.8
2017-Feb-09 13:33S 19°11' E 058°08'1312.6
2017-Feb-09 12:33S 19°05' E 058°19'1312.7
2017-Feb-09 11:33S 18°58' E 058°31'1514.5
2017-Feb-09 10:33S 18°51' E 058°45'  

Dump ship's entire track history